createdAt,value
2023-02-11T00:01:49.072Z,4.50
2023-02-11T00:04:18.730Z,4.50
2023-02-11T00:06:48.054Z,4.50
2023-02-11T00:09:17.498Z,4.50
2023-02-11T00:11:46.829Z,4.50
2023-02-11T00:14:16.353Z,4.50
2023-02-11T00:16:45.709Z,4.50
2023-02-11T00:19:15.088Z,4.50
2023-02-11T00:21:44.403Z,4.50
2023-02-11T00:24:13.769Z,4.50
2023-02-11T00:26:43.087Z,4.60
2023-02-11T00:29:12.435Z,4.60
2023-02-11T00:31:45.757Z,4.60
2023-02-11T00:34:15.366Z,4.60
2023-02-11T00:36:44.708Z,4.60
2023-02-11T00:39:14.054Z,4.60
2023-02-11T00:41:43.389Z,4.60
2023-02-11T00:44:14.476Z,4.70
2023-02-11T00:46:43.966Z,4.70
2023-02-11T00:49:13.350Z,4.70
2023-02-11T00:51:43.367Z,4.70
2023-02-11T00:54:12.854Z,4.70
2023-02-11T00:56:42.240Z,4.70
2023-02-11T00:59:11.674Z,4.70
2023-02-11T01:01:41.197Z,4.70
2023-02-11T01:04:11.224Z,4.70
2023-02-11T01:06:40.532Z,4.70
2023-02-11T01:09:10.021Z,4.70
2023-02-11T01:11:39.321Z,4.70
2023-02-11T01:14:08.931Z,4.70
2023-02-11T01:16:38.240Z,4.80
2023-02-11T01:19:07.819Z,4.80
2023-02-11T01:21:37.258Z,4.80
2023-02-11T01:24:06.717Z,4.80
2023-02-11T01:26:38.001Z,4.80
2023-02-11T01:29:07.321Z,4.80
2023-02-11T01:31:37.362Z,4.80
2023-02-11T01:34:06.719Z,4.90
2023-02-11T01:36:37.905Z,4.90
2023-02-11T01:39:08.758Z,4.90
2023-02-11T01:41:38.313Z,4.90
2023-02-11T01:44:29.033Z,4.90
2023-02-11T01:46:58.450Z,4.90
2023-02-11T01:49:33.102Z,5.00
2023-02-11T01:52:08.429Z,5.00
2023-02-11T01:54:58.421Z,5.00
2023-02-11T01:57:31.049Z,5.00
2023-02-11T02:00:12.394Z,5.00
2023-02-11T02:03:02.903Z,5.00
2023-02-11T02:05:35.267Z,5.00
2023-02-11T02:08:16.515Z,5.00
2023-02-11T02:10:48.000Z,5.10
2023-02-11T02:13:18.441Z,5.10
2023-02-11T02:15:53.665Z,5.10
2023-02-11T02:18:38.564Z,5.10
2023-02-11T02:21:34.914Z,5.10
2023-02-11T02:24:14.234Z,5.10
2023-02-11T02:26:58.673Z,5.10
2023-02-11T02:29:47.850Z,5.10
2023-02-11T02:32:32.158Z,5.20
2023-02-11T02:35:22.828Z,5.20
2023-02-11T02:37:58.001Z,5.20
2023-02-11T02:40:39.113Z,5.20
2023-02-11T02:43:10.741Z,5.20
2023-02-11T02:45:40.171Z,5.20
2023-02-11T02:48:24.437Z,5.20
2023-02-11T02:51:02.352Z,5.30
2023-02-11T02:54:09.536Z,5.30
2023-02-11T02:56:47.671Z,5.30
2023-02-11T02:59:38.235Z,5.30
2023-02-11T03:02:22.624Z,5.30
2023-02-11T03:04:55.008Z,5.30
2023-02-11T03:07:27.508Z,5.30
2023-02-11T03:09:59.896Z,5.30
2023-02-11T03:12:32.540Z,5.30
2023-02-11T03:15:05.055Z,5.40
2023-02-11T03:17:36.775Z,5.40
2023-02-11T03:20:08.736Z,5.40
2023-02-11T03:22:53.352Z,5.40
2023-02-11T03:25:25.474Z,5.40
2023-02-11T03:28:01.371Z,5.40
2023-02-11T03:30:51.525Z,5.40
2023-02-11T03:33:30.012Z,5.40
2023-02-11T03:36:05.321Z,5.40
2023-02-11T03:38:37.705Z,5.40
2023-02-11T03:41:08.910Z,5.40
2023-02-11T03:43:41.381Z,5.40
2023-02-11T03:46:13.192Z,5.40
2023-02-11T03:48:48.561Z,5.40
2023-02-11T03:51:19.057Z,5.40
2023-02-11T03:53:49.371Z,5.40
2023-02-11T03:56:19.459Z,5.40
2023-02-11T03:58:49.932Z,5.40
2023-02-11T04:01:19.352Z,5.40
2023-02-11T04:03:48.663Z,5.40
2023-02-11T04:06:18.005Z,5.40
2023-02-11T04:08:47.355Z,5.40
2023-02-11T04:11:16.741Z,5.50
2023-02-11T04:13:46.119Z,5.40
2023-02-11T04:16:15.520Z,5.50
2023-02-11T04:18:44.834Z,5.50
2023-02-11T04:21:14.253Z,5.50
2023-02-11T04:23:44.598Z,5.50
2023-02-11T04:26:13.191Z,5.50
2023-02-11T04:28:42.429Z,5.50
2023-02-11T04:31:12.736Z,5.50
2023-02-11T04:33:41.382Z,5.50
2023-02-11T04:36:10.696Z,5.50
2023-02-11T04:38:40.030Z,5.50
2023-02-11T04:41:09.343Z,5.60
2023-02-11T04:43:38.633Z,5.60
2023-02-11T04:46:08.058Z,5.60
2023-02-11T04:48:37.459Z,5.60
2023-02-11T04:51:07.038Z,5.60
2023-02-11T04:53:36.852Z,5.60
2023-02-11T04:56:06.419Z,5.60
2023-02-11T04:58:35.976Z,5.60
2023-02-11T05:01:10.553Z,5.70
2023-02-11T05:03:40.326Z,5.60
2023-02-11T05:06:11.880Z,5.70
2023-02-11T05:08:41.315Z,5.70
2023-02-11T05:11:19.539Z,5.70
2023-02-11T05:13:49.137Z,5.70
2023-02-11T05:16:19.269Z,5.70
2023-02-11T05:18:52.393Z,5.70
2023-02-11T05:21:21.228Z,5.70
2023-02-11T05:23:50.705Z,5.70
2023-02-11T05:26:20.385Z,5.70
2023-02-11T05:28:50.069Z,5.70
2023-02-11T05:31:19.551Z,5.80
2023-02-11T05:33:49.141Z,5.80
2023-02-11T05:36:18.544Z,5.80
2023-02-11T05:38:47.930Z,5.80
2023-02-11T05:41:17.339Z,5.80
2023-02-11T05:43:48.227Z,5.80
2023-02-11T05:46:18.207Z,5.80
2023-02-11T05:48:47.775Z,5.90
2023-02-11T05:51:17.111Z,5.90
2023-02-11T05:53:46.427Z,5.90
2023-02-11T05:56:15.789Z,5.90
2023-02-11T05:58:45.105Z,5.90
2023-02-11T06:01:14.488Z,5.90
2023-02-11T06:03:43.831Z,5.90
2023-02-11T06:06:14.274Z,5.90
2023-02-11T06:08:43.913Z,5.90
2023-02-11T06:11:15.188Z,6.00
2023-02-11T06:13:44.972Z,6.00
2023-02-11T06:16:14.492Z,6.00
2023-02-11T06:18:43.750Z,6.00
2023-02-11T06:21:13.700Z,6.00
2023-02-11T06:23:43.481Z,6.00
2023-02-11T06:26:18.801Z,6.00
2023-02-11T06:28:48.660Z,6.00
2023-02-11T06:31:18.350Z,6.00
2023-02-11T06:33:47.709Z,6.00
2023-02-11T06:36:19.523Z,6.00
2023-02-11T06:38:49.709Z,6.10
2023-02-11T06:41:22.880Z,6.10
2023-02-11T06:43:53.839Z,6.10
2023-02-11T06:46:23.514Z,6.20
2023-02-11T06:48:52.843Z,6.20
2023-02-11T06:51:22.217Z,6.20
2023-02-11T06:53:51.620Z,6.20
2023-02-11T06:56:22.903Z,6.20
2023-02-11T06:58:55.990Z,6.20
2023-02-11T07:01:26.537Z,6.30
2023-02-11T07:03:55.917Z,6.30
2023-02-11T07:06:27.961Z,6.30
2023-02-11T07:08:57.825Z,6.30
2023-02-11T07:11:29.321Z,6.30
2023-02-11T07:14:04.270Z,6.30
2023-02-11T07:16:34.146Z,6.30
2023-02-11T07:19:03.511Z,6.30
2023-02-11T07:21:32.944Z,6.30
2023-02-11T07:24:02.499Z,6.30
2023-02-11T07:26:31.879Z,6.30
2023-02-11T07:29:01.353Z,6.40
2023-02-11T07:31:32.574Z,6.40
2023-02-11T07:34:03.021Z,6.40
2023-02-11T07:36:33.318Z,6.40
2023-02-11T07:39:02.667Z,6.40
2023-02-11T07:41:32.359Z,6.40
2023-02-11T07:44:04.190Z,6.40
2023-02-11T07:46:35.575Z,6.50
2023-02-11T07:49:04.993Z,6.50
2023-02-11T07:51:34.341Z,6.50
2023-02-11T07:54:03.781Z,6.50
2023-02-11T07:56:34.262Z,6.50
2023-02-11T07:59:05.163Z,6.50
2023-02-11T08:01:35.188Z,6.60
2023-02-11T08:04:04.980Z,6.60
2023-02-11T08:06:36.023Z,6.70
2023-02-11T08:09:07.949Z,6.70
2023-02-11T08:11:37.496Z,6.70
2023-02-11T08:14:06.912Z,6.70
2023-02-11T08:16:38.841Z,6.80
2023-02-11T08:19:10.991Z,6.80
2023-02-11T08:21:41.541Z,6.80
2023-02-11T08:24:11.069Z,6.80
2023-02-11T08:26:41.003Z,6.90
2023-02-11T08:29:13.174Z,6.90
2023-02-11T08:31:45.592Z,6.90
2023-02-11T08:34:17.513Z,6.90
2023-02-11T08:36:48.206Z,7.00
2023-02-11T08:39:21.152Z,7.00
2023-02-11T08:41:54.041Z,7.00
2023-02-11T08:44:24.950Z,7.10
2023-02-11T08:46:54.699Z,7.10
2023-02-11T08:49:24.550Z,7.10
2023-02-11T08:51:55.563Z,7.10
2023-02-11T08:54:24.945Z,7.20
2023-02-11T08:56:54.547Z,7.20
2023-02-11T08:59:24.176Z,7.20
2023-02-11T09:01:53.631Z,7.30
2023-02-11T09:04:23.007Z,7.30
2023-02-11T09:06:52.441Z,7.30
2023-02-11T09:09:22.112Z,7.40
2023-02-11T09:11:51.523Z,7.40
2023-02-11T09:14:23.156Z,7.40
2023-02-11T09:16:53.271Z,7.50
2023-02-11T09:19:23.076Z,7.50
2023-02-11T09:21:52.504Z,7.50
2023-02-11T09:24:21.820Z,7.50
2023-02-11T09:26:51.394Z,7.50
2023-02-11T09:29:20.696Z,7.50
2023-02-11T09:31:50.497Z,7.50
2023-02-11T09:34:19.866Z,7.60
2023-02-11T09:36:49.320Z,7.60
2023-02-11T09:39:20.644Z,7.60
2023-02-11T09:42:11.065Z,7.70
2023-02-11T09:44:40.110Z,7.70
2023-02-11T09:47:31.132Z,7.80
2023-02-11T09:50:09.766Z,7.80
2023-02-11T09:52:42.227Z,7.90
2023-02-11T09:55:36.016Z,8.00
2023-02-11T09:58:08.431Z,8.00
2023-02-11T10:01:10.986Z,8.00
2023-02-11T10:04:05.105Z,8.00
2023-02-11T10:06:43.399Z,8.10
2023-02-11T10:09:30.865Z,8.20
2023-02-11T10:12:32.140Z,8.40
2023-02-11T10:15:24.295Z,8.40
2023-02-11T10:18:13.668Z,8.50
2023-02-11T10:20:51.631Z,8.50
2023-02-11T10:23:26.849Z,8.60
2023-02-11T10:25:58.906Z,8.60
2023-02-11T10:28:36.545Z,8.60
2023-02-11T10:31:15.858Z,8.60
2023-02-11T10:34:03.449Z,8.70
2023-02-11T10:36:35.750Z,8.70
2023-02-11T10:39:13.680Z,8.70
2023-02-11T10:41:46.187Z,8.70
2023-02-11T10:44:24.276Z,8.70
2023-02-11T10:46:54.748Z,8.70
2023-02-11T10:49:39.406Z,8.60
2023-02-11T10:52:14.051Z,8.60
2023-02-11T10:54:43.373Z,8.60
2023-02-11T10:57:15.827Z,8.60
2023-02-11T10:59:45.389Z,8.60
2023-02-11T11:02:28.245Z,8.60
2023-02-11T11:04:59.551Z,8.60
2023-02-11T11:07:31.111Z,8.60
2023-02-11T11:10:06.505Z,8.60
2023-02-11T11:12:41.844Z,8.60
2023-02-11T11:15:26.054Z,8.60
2023-02-11T11:18:24.599Z,8.60
2023-02-11T11:20:57.418Z,8.70
2023-02-11T11:23:28.754Z,8.70
2023-02-11T11:26:10.480Z,8.70
2023-02-11T11:29:00.253Z,8.70
2023-02-11T11:31:53.328Z,8.80
2023-02-11T11:34:25.884Z,8.70
2023-02-11T11:36:58.439Z,8.80
2023-02-11T11:39:34.054Z,8.80
2023-02-11T11:42:06.199Z,8.80
2023-02-11T11:44:38.220Z,8.80
2023-02-11T11:47:16.638Z,8.80
2023-02-11T11:50:16.392Z,8.80
2023-02-11T11:52:51.532Z,8.80
2023-02-11T11:55:29.645Z,8.80
2023-02-11T11:57:59.828Z,8.80
2023-02-11T12:00:32.395Z,8.80
2023-02-11T12:03:25.504Z,8.80
2023-02-11T12:05:57.995Z,8.80
2023-02-11T12:08:33.299Z,8.90
2023-02-11T12:11:12.002Z,8.80
2023-02-11T12:13:56.446Z,8.80
2023-02-11T12:16:41.067Z,8.80
2023-02-11T12:19:19.328Z,8.80
2023-02-11T12:21:54.439Z,8.90
2023-02-11T12:24:32.718Z,8.90
2023-02-11T12:27:09.693Z,8.90
2023-02-11T12:30:00.186Z,8.90
2023-02-11T12:32:31.701Z,8.90
2023-02-11T12:35:15.774Z,8.90
2023-02-11T12:38:00.198Z,8.90
2023-02-11T12:40:44.766Z,8.90
2023-02-11T12:43:23.240Z,9.00
2023-02-11T12:46:06.256Z,9.00
2023-02-11T12:48:56.805Z,9.00
2023-02-11T12:51:34.888Z,9.00
2023-02-11T12:54:22.426Z,9.00
2023-02-11T12:57:11.031Z,9.00
2023-02-11T12:59:46.458Z,9.00
2023-02-11T13:02:21.815Z,8.90
2023-02-11T13:04:54.267Z,8.90
2023-02-11T13:07:35.580Z,8.90
2023-02-11T13:10:16.887Z,8.90
2023-02-11T13:13:07.237Z,8.90
2023-02-11T13:15:36.004Z,8.90
2023-02-11T13:18:14.116Z,8.90
2023-02-11T13:20:46.642Z,8.90
2023-02-11T13:23:30.561Z,9.00
2023-02-11T13:26:10.658Z,9.00
2023-02-11T13:28:49.653Z,9.00
2023-02-11T13:31:20.491Z,9.00
2023-02-11T13:33:50.014Z,9.00
2023-02-11T13:36:24.881Z,9.10
2023-02-11T13:38:57.378Z,9.10
2023-02-11T13:41:32.843Z,9.10
2023-02-11T13:44:15.912Z,9.10
2023-02-11T13:47:04.741Z,9.20
2023-02-11T13:49:42.821Z,9.20
2023-02-11T13:52:37.518Z,9.20
2023-02-11T13:55:19.790Z,9.20
2023-02-11T13:58:10.674Z,9.20
2023-02-11T14:00:51.942Z,9.30
2023-02-11T14:03:45.251Z,9.30
2023-02-11T14:06:42.856Z,9.30
2023-02-11T14:09:19.090Z,9.40
2023-02-11T14:11:52.344Z,9.40
2023-02-11T14:14:29.876Z,9.40
2023-02-11T14:17:14.483Z,9.40
2023-02-11T14:19:46.364Z,9.50
2023-02-11T14:22:33.631Z,9.50
2023-02-11T14:25:08.029Z,9.50
2023-02-11T14:27:58.214Z,9.50
2023-02-11T14:30:49.141Z,9.60
2023-02-11T14:33:38.146Z,9.50
2023-02-11T14:36:13.376Z,9.60
2023-02-11T14:39:05.130Z,9.60
2023-02-11T14:41:43.803Z,9.60
2023-02-11T14:44:16.338Z,9.60
2023-02-11T14:46:48.829Z,9.60
2023-02-11T14:49:33.332Z,9.60
2023-02-11T14:52:23.943Z,9.60
2023-02-11T14:54:55.144Z,9.60
2023-02-11T14:57:24.731Z,9.60
2023-02-11T15:00:03.074Z,9.60
2023-02-11T15:02:37.860Z,9.60
2023-02-11T15:05:19.380Z,9.60
2023-02-11T15:07:57.689Z,9.60
2023-02-11T15:10:35.809Z,9.50
2023-02-11T15:13:06.567Z,9.50
2023-02-11T15:15:38.115Z,9.50
2023-02-11T15:18:09.707Z,9.40
2023-02-11T15:20:40.634Z,9.30
2023-02-11T15:23:15.147Z,9.30
2023-02-11T15:25:50.201Z,9.30
2023-02-11T15:28:31.520Z,9.30
2023-02-11T15:31:07.414Z,9.30
2023-02-11T15:33:37.136Z,9.20
2023-02-11T15:36:07.205Z,9.20
2023-02-11T15:38:36.717Z,9.20
2023-02-11T15:41:07.866Z,9.10
2023-02-11T15:43:48.806Z,9.10
2023-02-11T15:46:20.876Z,9.10
2023-02-11T15:48:55.624Z,9.00
2023-02-11T15:51:35.022Z,9.00
2023-02-11T15:54:07.566Z,9.00
2023-02-11T15:56:44.155Z,9.00
2023-02-11T15:59:30.570Z,8.90
2023-02-11T16:02:03.020Z,8.90
2023-02-11T16:04:32.852Z,8.90
2023-02-11T16:07:02.968Z,8.90
2023-02-11T16:09:35.616Z,8.90
2023-02-11T16:12:27.483Z,8.80
2023-02-11T16:14:58.627Z,8.80
2023-02-11T16:17:30.159Z,8.80
2023-02-11T16:19:59.770Z,8.70
2023-02-11T16:22:33.253Z,8.70
2023-02-11T16:25:03.331Z,8.70
2023-02-11T16:27:43.205Z,8.70
2023-02-11T16:30:36.571Z,8.60
2023-02-11T16:33:06.288Z,8.60
2023-02-11T16:35:37.473Z,8.50
2023-02-11T16:38:06.823Z,8.50
2023-02-11T16:40:36.679Z,8.50
2023-02-11T16:43:06.122Z,8.50
2023-02-11T16:45:40.383Z,8.50
2023-02-11T16:48:11.105Z,8.40
2023-02-11T16:50:43.493Z,8.40
2023-02-11T16:53:13.423Z,8.40
2023-02-11T16:55:42.737Z,8.40
2023-02-11T16:58:12.176Z,8.30
2023-02-11T17:00:41.947Z,8.30
2023-02-11T17:03:14.220Z,8.30
2023-02-11T17:05:54.973Z,8.30
2023-02-11T17:08:17.295Z,8.30
2023-02-11T17:10:46.696Z,8.30
2023-02-11T17:13:16.126Z,8.30
2023-02-11T17:15:45.585Z,8.20
2023-02-11T17:18:15.433Z,8.20
2023-02-11T17:20:45.070Z,8.20
2023-02-11T17:23:14.567Z,8.10
2023-02-11T17:25:43.856Z,8.10
2023-02-11T17:28:13.311Z,8.10
2023-02-11T17:30:44.122Z,8.10
2023-02-11T17:33:13.621Z,8.10
2023-02-11T17:35:43.212Z,8.00
2023-02-11T17:38:12.626Z,8.00
2023-02-11T17:40:42.138Z,8.00
2023-02-11T17:43:11.494Z,7.90
2023-02-11T17:45:43.958Z,7.90
2023-02-11T17:48:13.283Z,7.90
2023-02-11T17:50:42.730Z,7.90
2023-02-11T17:53:12.266Z,7.80
2023-02-11T17:55:41.887Z,7.80
2023-02-11T17:58:11.382Z,7.70
2023-02-11T18:00:40.820Z,7.70
2023-02-11T18:03:10.395Z,7.60
2023-02-11T18:05:40.124Z,7.60
2023-02-11T18:08:09.602Z,7.60
2023-02-11T18:10:42.797Z,7.50
2023-02-11T18:13:12.212Z,7.50
2023-02-11T18:15:41.521Z,7.40
2023-02-11T18:18:11.044Z,7.40
2023-02-11T18:20:42.160Z,7.30
2023-02-11T18:23:12.169Z,7.30
2023-02-11T18:25:44.913Z,7.30
2023-02-11T18:28:14.329Z,7.20
2023-02-11T18:30:43.738Z,7.20
2023-02-11T18:33:14.408Z,7.20
2023-02-11T18:35:45.520Z,7.10
2023-02-11T18:38:15.823Z,7.10
2023-02-11T18:40:50.353Z,7.10
2023-02-11T18:43:21.218Z,7.10
2023-02-11T18:45:52.080Z,7.00
2023-02-11T18:48:21.588Z,7.00
2023-02-11T18:50:50.960Z,7.00
2023-02-11T18:53:20.668Z,7.00
2023-02-11T18:55:50.476Z,7.00
2023-02-11T18:58:21.308Z,7.00
2023-02-11T19:00:51.466Z,7.00
2023-02-11T19:03:21.266Z,6.90
2023-02-11T19:05:51.253Z,7.00
2023-02-11T19:08:20.738Z,6.90
2023-02-11T19:10:50.105Z,6.90
2023-02-11T19:13:19.638Z,7.00
2023-02-11T19:15:49.016Z,6.90
2023-02-11T19:18:18.396Z,7.00
2023-02-11T19:20:47.776Z,7.00
2023-02-11T19:23:17.218Z,7.00
2023-02-11T19:25:48.551Z,7.00
2023-02-11T19:28:18.003Z,7.00
2023-02-11T19:30:49.796Z,7.00
2023-02-11T19:33:19.262Z,7.00
2023-02-11T19:35:48.755Z,7.00
2023-02-11T19:38:19.088Z,7.00
2023-02-11T19:40:51.517Z,7.00
2023-02-11T19:43:20.887Z,7.00
2023-02-11T19:45:50.620Z,7.10
2023-02-11T19:48:20.262Z,7.10
2023-02-11T19:50:49.645Z,7.10
2023-02-11T19:53:19.158Z,7.00
2023-02-11T19:55:49.781Z,7.10
2023-02-11T19:58:19.443Z,7.10
2023-02-11T20:00:48.752Z,7.10
2023-02-11T20:03:18.137Z,7.10
2023-02-11T20:05:47.792Z,7.10
2023-02-11T20:08:17.400Z,7.10
2023-02-11T20:10:46.729Z,7.10
2023-02-11T20:13:16.180Z,7.10
2023-02-11T20:15:45.518Z,7.20
2023-02-11T20:18:14.853Z,7.20
2023-02-11T20:20:44.163Z,7.20
2023-02-11T20:23:13.521Z,7.20
2023-02-11T20:25:42.953Z,7.20
2023-02-11T20:28:12.356Z,7.20
2023-02-11T20:30:41.875Z,7.20
2023-02-11T20:33:11.268Z,7.20
2023-02-11T20:35:40.554Z,7.20
2023-02-11T20:38:10.033Z,7.20
2023-02-11T20:40:39.337Z,7.20
2023-02-11T20:43:09.174Z,7.20
2023-02-11T20:45:38.495Z,7.20
2023-02-11T20:48:07.949Z,7.30
2023-02-11T20:50:37.352Z,7.30
2023-02-11T20:53:07.345Z,7.20
2023-02-11T20:55:39.653Z,7.20
2023-02-11T20:58:09.243Z,7.30
2023-02-11T21:00:38.762Z,7.30
2023-02-11T21:03:08.147Z,7.30
2023-02-11T21:05:37.526Z,7.30
2023-02-11T21:08:06.921Z,7.30
2023-02-11T21:10:36.288Z,7.30
2023-02-11T21:13:05.774Z,7.30
2023-02-11T21:15:35.128Z,7.30
2023-02-11T21:18:04.622Z,7.30
2023-02-11T21:20:34.115Z,7.30
2023-02-11T21:23:03.434Z,7.30
2023-02-11T21:25:32.873Z,7.30
2023-02-11T21:28:02.350Z,7.30
2023-02-11T21:30:31.878Z,7.30
2023-02-11T21:33:01.349Z,7.30
2023-02-11T21:35:32.980Z,7.30
2023-02-11T21:38:02.461Z,7.30
2023-02-11T21:40:31.849Z,7.30
2023-02-11T21:43:01.245Z,7.30
2023-02-11T21:45:32.379Z,7.30
2023-02-11T21:48:01.854Z,7.30
2023-02-11T21:50:32.111Z,7.30
2023-02-11T21:53:01.620Z,7.30
2023-02-11T21:55:30.979Z,7.30
2023-02-11T21:58:00.466Z,7.30
2023-02-11T22:00:30.305Z,7.30
2023-02-11T22:02:59.876Z,7.30
2023-02-11T22:05:29.389Z,7.30
2023-02-11T22:07:58.701Z,7.30
2023-02-11T22:10:28.121Z,7.30
2023-02-11T22:12:57.488Z,7.30
2023-02-11T22:15:26.879Z,7.30
2023-02-11T22:17:56.257Z,7.30
2023-02-11T22:20:25.693Z,7.30
2023-02-11T22:22:55.048Z,7.30
2023-02-11T22:25:24.422Z,7.30
2023-02-11T22:27:53.796Z,7.20
2023-02-11T22:30:23.225Z,7.20
2023-02-11T22:32:52.532Z,7.20
2023-02-11T22:35:21.956Z,7.20
2023-02-11T22:37:51.264Z,7.20
2023-02-11T22:40:20.864Z,7.20
2023-02-11T22:42:50.271Z,7.20
2023-02-11T22:45:19.708Z,7.20
2023-02-11T22:47:49.054Z,7.20
2023-02-11T22:50:18.586Z,7.20
2023-02-11T22:52:47.877Z,7.20
2023-02-11T22:55:17.311Z,7.20
2023-02-11T22:57:46.631Z,7.20
2023-02-11T23:00:17.285Z,7.20
2023-02-11T23:02:46.695Z,7.20
2023-02-11T23:05:16.140Z,7.20
2023-02-11T23:07:45.521Z,7.20
2023-02-11T23:10:15.051Z,7.20
2023-02-11T23:12:45.289Z,7.20
2023-02-11T23:15:14.732Z,7.20
2023-02-11T23:17:44.121Z,7.20
2023-02-11T23:20:13.783Z,7.20
2023-02-11T23:22:43.190Z,7.20
2023-02-11T23:25:12.643Z,7.20
2023-02-11T23:27:42.241Z,7.20
2023-02-11T23:30:12.212Z,7.20
2023-02-11T23:32:41.586Z,7.20
2023-02-11T23:35:10.945Z,7.10
2023-02-11T23:37:40.323Z,7.10
2023-02-11T23:40:10.191Z,7.10
2023-02-11T23:42:39.579Z,7.10
2023-02-11T23:45:09.569Z,7.10
2023-02-11T23:47:39.859Z,7.10
2023-02-11T23:50:09.003Z,7.10
2023-02-11T23:52:38.657Z,7.10
2023-02-11T23:55:08.567Z,7.10
2023-02-11T23:57:38.159Z,7.10
